createdAt,value
2017-08-09T00:00:26.310Z,0
2017-08-09T00:01:34.397Z,0
2017-08-09T00:02:42.482Z,0
2017-08-09T00:03:50.570Z,0
2017-08-09T00:04:58.653Z,0
2017-08-09T00:06:06.741Z,0
2017-08-09T00:07:14.830Z,0
2017-08-09T00:08:22.916Z,0
2017-08-09T00:09:31.004Z,0
2017-08-09T00:10:39.091Z,0
2017-08-09T00:11:47.174Z,0
2017-08-09T00:12:55.265Z,0
2017-08-09T00:14:03.349Z,0
2017-08-09T00:15:11.436Z,0
2017-08-09T00:16:19.522Z,0
2017-08-09T00:17:27.612Z,0
2017-08-09T00:18:35.704Z,0
2017-08-09T00:19:43.787Z,0
2017-08-09T00:20:51.878Z,0
2017-08-09T00:21:59.961Z,0
2017-08-09T00:23:08.049Z,0
2017-08-09T00:24:16.136Z,0
2017-08-09T00:25:24.280Z,0
2017-08-09T00:26:32.310Z,0
2017-08-09T00:27:40.395Z,0
2017-08-09T00:28:48.484Z,0
2017-08-09T00:29:56.571Z,0
2017-08-09T00:31:04.659Z,0
2017-08-09T00:32:12.745Z,0
2017-08-09T00:33:20.831Z,0
2017-08-09T00:34:28.935Z,0
2017-08-09T00:35:37.028Z,0
2017-08-09T00:36:45.109Z,0
2017-08-09T00:37:53.193Z,0
2017-08-09T00:39:01.282Z,0
2017-08-09T00:40:09.366Z,0
2017-08-09T00:41:17.454Z,0
2017-08-09T00:42:25.538Z,0
2017-08-09T00:43:33.626Z,0
2017-08-09T00:44:41.712Z,0
2017-08-09T00:45:49.800Z,0
2017-08-09T00:46:57.888Z,0
2017-08-09T00:48:05.974Z,0
2017-08-09T00:49:14.220Z,0
2017-08-09T00:50:22.156Z,0
2017-08-09T00:51:30.233Z,0
2017-08-09T00:52:38.319Z,0
2017-08-09T00:53:46.407Z,0
2017-08-09T00:54:54.508Z,0
2017-08-09T00:56:02.582Z,0
2017-08-09T00:57:10.669Z,0
2017-08-09T00:58:18.753Z,0
2017-08-09T00:59:26.840Z,0
2017-08-09T01:00:34.921Z,0
2017-08-09T01:01:43.016Z,0
2017-08-09T01:02:51.096Z,0
2017-08-09T01:03:59.185Z,0
2017-08-09T01:05:07.279Z,0
2017-08-09T01:06:15.370Z,0
2017-08-09T01:07:23.447Z,0
2017-08-09T01:08:31.530Z,0
2017-08-09T01:09:39.617Z,0
2017-08-09T01:10:47.702Z,0
2017-08-09T01:11:55.793Z,0
2017-08-09T01:13:03.881Z,0
2017-08-09T01:14:11.976Z,0
2017-08-09T01:15:20.067Z,0
2017-08-09T01:16:28.152Z,0
2017-08-09T01:17:36.243Z,0
2017-08-09T01:18:44.333Z,0
2017-08-09T01:19:52.410Z,0
2017-08-09T01:21:00.495Z,0
2017-08-09T01:22:08.585Z,0
2017-08-09T01:23:16.672Z,0
2017-08-09T01:24:24.757Z,0
2017-08-09T01:25:32.846Z,0
2017-08-09T01:26:40.929Z,0
2017-08-09T01:27:49.015Z,0
2017-08-09T01:28:57.104Z,0
2017-08-09T01:30:05.190Z,0
2017-08-09T01:31:13.280Z,0
2017-08-09T01:32:21.365Z,0
2017-08-09T01:33:29.459Z,0
2017-08-09T01:34:37.538Z,0
2017-08-09T01:35:45.625Z,0
2017-08-09T01:36:53.713Z,0
2017-08-09T01:38:01.798Z,0
2017-08-09T01:39:09.885Z,0
2017-08-09T01:40:17.973Z,0
2017-08-09T01:41:26.061Z,0
2017-08-09T01:42:34.148Z,0
2017-08-09T01:43:42.244Z,0
2017-08-09T01:44:50.326Z,0
2017-08-09T01:45:58.408Z,0
2017-08-09T01:47:06.495Z,0
2017-08-09T01:48:14.579Z,0
2017-08-09T01:49:22.669Z,0
2017-08-09T01:50:30.756Z,0
2017-08-09T01:51:38.840Z,0
2017-08-09T01:52:46.927Z,0
2017-08-09T01:53:55.026Z,0
2017-08-09T01:55:03.118Z,0
2017-08-09T01:56:11.200Z,0
2017-08-09T01:57:19.285Z,0
2017-08-09T01:58:27.374Z,0
2017-08-09T01:59:35.459Z,0
2017-08-09T02:00:43.547Z,0
2017-08-09T02:01:51.641Z,0
2017-08-09T02:02:59.719Z,0
2017-08-09T02:04:07.806Z,0
2017-08-09T02:05:15.908Z,0
2017-08-09T02:06:23.979Z,0
2017-08-09T02:07:32.068Z,0
2017-08-09T02:08:40.153Z,0
2017-08-09T02:09:48.241Z,0
2017-08-09T02:10:56.328Z,0
2017-08-09T02:12:04.413Z,0
2017-08-09T02:13:12.498Z,0
2017-08-09T02:14:20.586Z,0
2017-08-09T02:15:28.671Z,0
2017-08-09T02:16:36.758Z,0
2017-08-09T02:17:44.847Z,0
2017-08-09T02:18:52.934Z,0
2017-08-09T02:20:01.021Z,0
2017-08-09T02:21:09.114Z,0
2017-08-09T02:22:17.261Z,0
2017-08-09T02:23:25.292Z,0
2017-08-09T02:24:33.375Z,0
2017-08-09T02:25:41.461Z,0
2017-08-09T02:26:49.550Z,0
2017-08-09T02:27:57.727Z,0
2017-08-09T02:29:05.732Z,0
2017-08-09T02:30:13.810Z,0
2017-08-09T02:31:21.894Z,0
2017-08-09T02:32:29.988Z,0
2017-08-09T02:33:38.069Z,0
2017-08-09T02:34:46.155Z,0
2017-08-09T02:35:54.244Z,0
2017-08-09T02:37:02.333Z,0
2017-08-09T02:38:10.415Z,0
2017-08-09T02:39:18.504Z,0
2017-08-09T02:40:26.593Z,0
2017-08-09T02:41:34.680Z,0
2017-08-09T02:42:42.760Z,0
2017-08-09T02:43:50.847Z,0
2017-08-09T02:44:58.935Z,0
2017-08-09T02:46:07.022Z,0
2017-08-09T02:47:15.111Z,0
2017-08-09T02:48:23.200Z,0
2017-08-09T02:49:31.285Z,0
2017-08-09T02:50:39.369Z,0
2017-08-09T02:51:47.455Z,0
2017-08-09T02:52:55.554Z,0
2017-08-09T02:54:03.637Z,0
2017-08-09T02:55:11.725Z,0
2017-08-09T02:56:19.811Z,0
2017-08-09T02:57:27.898Z,0
2017-08-09T02:58:35.989Z,0
2017-08-09T02:59:44.073Z,0
2017-08-09T03:00:52.164Z,0
2017-08-09T03:02:00.244Z,0
2017-08-09T03:03:08.330Z,0
2017-08-09T03:04:16.416Z,0
2017-08-09T03:05:24.505Z,0
2017-08-09T03:06:32.589Z,0
2017-08-09T03:07:40.682Z,0
2017-08-09T03:08:48.766Z,0
2017-08-09T03:09:56.851Z,0
2017-08-09T03:11:04.937Z,0
2017-08-09T03:12:13.026Z,0
2017-08-09T03:13:21.391Z,0
2017-08-09T03:14:29.196Z,0
2017-08-09T03:15:37.289Z,0
2017-08-09T03:16:45.374Z,0
2017-08-09T03:17:53.461Z,0
2017-08-09T03:19:01.548Z,0
2017-08-09T03:20:09.633Z,0
2017-08-09T03:21:17.717Z,0
2017-08-09T03:22:25.805Z,0
2017-08-09T03:23:33.893Z,0
2017-08-09T03:24:41.979Z,0
2017-08-09T03:25:50.067Z,0
2017-08-09T03:26:58.153Z,0
2017-08-09T03:28:06.249Z,0
2017-08-09T03:29:14.337Z,0
2017-08-09T03:30:22.439Z,0
2017-08-09T03:31:30.536Z,0
2017-08-09T03:32:38.613Z,0
2017-08-09T03:33:46.700Z,0
2017-08-09T03:34:54.785Z,0
2017-08-09T03:36:02.873Z,0
2017-08-09T03:37:10.959Z,0
2017-08-09T03:38:19.058Z,0
2017-08-09T03:39:27.132Z,0
2017-08-09T03:40:35.224Z,0
2017-08-09T03:41:43.308Z,0
2017-08-09T03:42:51.393Z,0
2017-08-09T03:43:59.480Z,0
2017-08-09T03:45:07.568Z,0
2017-08-09T03:46:15.655Z,0
2017-08-09T03:47:23.742Z,0
2017-08-09T03:48:31.880Z,0
2017-08-09T03:49:39.912Z,0
2017-08-09T03:50:48.003Z,0
2017-08-09T03:51:56.090Z,0
2017-08-09T03:53:04.175Z,0
2017-08-09T03:54:12.261Z,0
2017-08-09T03:55:20.768Z,0
2017-08-09T03:56:28.435Z,0
2017-08-09T03:57:36.565Z,0
2017-08-09T03:58:44.613Z,0
2017-08-09T03:59:52.699Z,0
2017-08-09T04:01:00.785Z,0
2017-08-09T04:02:08.863Z,0
2017-08-09T04:03:16.961Z,0
2017-08-09T04:04:25.253Z,0
2017-08-09T04:05:33.133Z,0
2017-08-09T04:06:41.214Z,0
2017-08-09T04:07:49.303Z,0
2017-08-09T04:08:57.399Z,0
2017-08-09T04:10:05.486Z,0
2017-08-09T04:11:13.574Z,0
2017-08-09T04:12:21.663Z,0
2017-08-09T04:13:29.751Z,0
2017-08-09T04:14:37.846Z,0
2017-08-09T04:15:45.941Z,0
2017-08-09T04:16:54.335Z,0
2017-08-09T04:18:02.103Z,0
2017-08-09T04:19:10.308Z,0
2017-08-09T04:20:18.287Z,0
2017-08-09T04:21:26.365Z,0
2017-08-09T04:22:34.451Z,0
2017-08-09T04:23:42.540Z,0
2017-08-09T04:24:50.645Z,0
2017-08-09T04:25:58.719Z,0
2017-08-09T04:27:06.797Z,0
2017-08-09T04:28:14.895Z,0
2017-08-09T04:29:22.980Z,0
2017-08-09T04:30:31.060Z,0
2017-08-09T04:31:39.145Z,0
2017-08-09T04:32:47.235Z,4
2017-08-09T04:33:55.320Z,0
2017-08-09T04:35:03.415Z,0
2017-08-09T04:36:11.497Z,0
2017-08-09T04:37:19.585Z,4
2017-08-09T04:38:29.323Z,4
2017-08-09T04:39:35.759Z,0
2017-08-09T04:40:43.847Z,0
2017-08-09T04:41:51.948Z,0
2017-08-09T04:43:00.049Z,4
2017-08-09T04:44:08.133Z,0
2017-08-09T04:45:16.221Z,0
2017-08-09T04:46:24.318Z,4
2017-08-09T04:47:32.396Z,0
2017-08-09T04:48:40.481Z,0
2017-08-09T04:49:48.565Z,0
2017-08-09T04:50:56.655Z,4
2017-08-09T04:52:04.739Z,0
2017-08-09T04:53:12.828Z,4
2017-08-09T04:54:20.915Z,4
2017-08-09T04:55:29.001Z,0
2017-08-09T04:56:37.088Z,0
2017-08-09T04:57:45.173Z,4
2017-08-09T04:58:53.260Z,4
2017-08-09T05:00:01.350Z,4
2017-08-09T05:01:09.445Z,0
2017-08-09T05:02:19.184Z,0
2017-08-09T05:03:25.618Z,0
2017-08-09T05:04:33.707Z,4
2017-08-09T05:05:41.792Z,4
2017-08-09T05:06:49.914Z,4
2017-08-09T05:07:57.966Z,4
2017-08-09T05:09:06.060Z,0
2017-08-09T05:10:14.139Z,4
2017-08-09T05:11:22.226Z,4
2017-08-09T05:12:30.590Z,4
2017-08-09T05:13:38.399Z,4
2017-08-09T05:14:46.496Z,4
2017-08-09T05:15:54.571Z,4
2017-08-09T05:17:02.658Z,4
2017-08-09T05:18:10.744Z,4
2017-08-09T05:19:18.834Z,4
2017-08-09T05:20:26.921Z,4
2017-08-09T05:21:35.010Z,4
2017-08-09T05:22:43.096Z,4
2017-08-09T05:23:51.184Z,4
2017-08-09T05:24:59.271Z,4
2017-08-09T05:26:07.357Z,4
2017-08-09T05:27:15.454Z,4
2017-08-09T05:28:23.539Z,4
2017-08-09T05:29:31.631Z,8
2017-08-09T05:30:39.710Z,8
2017-08-09T05:31:47.795Z,8
2017-08-09T05:32:55.886Z,8
2017-08-09T05:34:03.969Z,4
2017-08-09T05:35:12.064Z,8
2017-08-09T05:36:20.199Z,4
2017-08-09T05:37:28.229Z,8
2017-08-09T05:38:36.316Z,4
2017-08-09T05:39:44.428Z,8
2017-08-09T05:40:52.491Z,8
2017-08-09T05:42:00.576Z,8
2017-08-09T05:43:08.669Z,8
2017-08-09T05:44:16.751Z,8
2017-08-09T05:45:24.836Z,8
2017-08-09T05:46:32.923Z,4
2017-08-09T05:47:41.021Z,4
2017-08-09T05:48:49.099Z,4
2017-08-09T05:49:57.186Z,4
2017-08-09T05:51:05.273Z,4
2017-08-09T05:52:13.360Z,8
2017-08-09T05:53:21.445Z,8
2017-08-09T05:54:29.533Z,4
2017-08-09T05:55:37.620Z,4
2017-08-09T05:56:45.707Z,4
2017-08-09T05:57:53.794Z,4
2017-08-09T05:59:01.882Z,8
2017-08-09T06:00:09.969Z,8
2017-08-09T06:01:18.055Z,8
2017-08-09T06:02:26.141Z,8
2017-08-09T06:03:34.230Z,4
2017-08-09T06:04:42.313Z,4
2017-08-09T06:05:50.407Z,4
2017-08-09T06:06:58.487Z,4
2017-08-09T06:08:06.577Z,4
2017-08-09T06:09:14.664Z,4
2017-08-09T06:10:22.749Z,4
2017-08-09T06:11:30.836Z,8
2017-08-09T06:12:38.935Z,8
2017-08-09T06:13:47.022Z,4
2017-08-09T06:14:55.102Z,4
2017-08-09T06:16:03.189Z,4
2017-08-09T06:17:11.284Z,8
2017-08-09T06:18:19.361Z,4
2017-08-09T06:19:27.449Z,4
2017-08-09T06:20:35.535Z,4
2017-08-09T06:21:43.624Z,4
2017-08-09T06:22:51.706Z,4
2017-08-09T06:23:59.795Z,4
2017-08-09T06:25:07.882Z,8
2017-08-09T06:26:15.970Z,8
2017-08-09T06:27:24.066Z,4
2017-08-09T06:28:32.145Z,8
2017-08-09T06:29:40.237Z,4
2017-08-09T06:30:48.318Z,8
2017-08-09T06:31:56.405Z,4
2017-08-09T06:33:04.492Z,4
2017-08-09T06:34:12.598Z,4
2017-08-09T06:35:20.664Z,8
2017-08-09T06:36:28.754Z,4
2017-08-09T06:37:36.923Z,4
2017-08-09T06:38:44.926Z,4
2017-08-09T06:39:53.025Z,4
2017-08-09T06:41:01.100Z,4
2017-08-09T06:42:09.185Z,4
2017-08-09T06:43:17.270Z,8
2017-08-09T06:44:25.361Z,8
2017-08-09T06:45:33.446Z,8
2017-08-09T06:46:41.535Z,8
2017-08-09T06:47:49.621Z,8
2017-08-09T06:48:57.708Z,4
2017-08-09T06:50:05.795Z,4
2017-08-09T06:51:13.882Z,8
2017-08-09T06:52:21.975Z,8
2017-08-09T06:53:30.054Z,8
2017-08-09T06:54:38.143Z,8
2017-08-09T06:55:46.231Z,12
2017-08-09T06:56:54.316Z,8
2017-08-09T06:58:02.402Z,12
2017-08-09T06:59:10.492Z,12
2017-08-09T07:00:18.576Z,8
2017-08-09T07:01:26.662Z,12
2017-08-09T07:02:34.748Z,12
2017-08-09T07:03:42.835Z,12
2017-08-09T07:04:50.927Z,12
2017-08-09T07:05:59.060Z,12
2017-08-09T07:07:07.108Z,12
2017-08-09T07:08:15.184Z,12
2017-08-09T07:09:23.271Z,12
2017-08-09T07:10:31.357Z,12
2017-08-09T07:11:39.450Z,12
2017-08-09T07:12:47.531Z,16
2017-08-09T07:13:55.617Z,12
2017-08-09T07:15:03.702Z,12
2017-08-09T07:16:11.792Z,16
2017-08-09T07:17:19.883Z,12
2017-08-09T07:18:28.220Z,12
2017-08-09T07:19:36.056Z,12
2017-08-09T07:20:44.141Z,12
2017-08-09T07:21:52.237Z,16
2017-08-09T07:23:00.318Z,16
2017-08-09T07:24:08.404Z,16
2017-08-09T07:25:16.489Z,16
2017-08-09T07:26:24.576Z,16
2017-08-09T07:27:32.664Z,16
2017-08-09T07:28:40.750Z,16
2017-08-09T07:29:48.836Z,16
2017-08-09T07:30:56.920Z,16
2017-08-09T07:32:05.010Z,16
2017-08-09T07:33:13.151Z,16
2017-08-09T07:34:21.185Z,12
2017-08-09T07:35:29.270Z,16
2017-08-09T07:36:37.412Z,16
2017-08-09T07:37:45.453Z,12
2017-08-09T07:38:53.543Z,12
2017-08-09T07:40:01.628Z,12
2017-08-09T07:41:09.714Z,12
2017-08-09T07:42:17.800Z,12
2017-08-09T07:43:25.888Z,12
2017-08-09T07:44:33.977Z,12
2017-08-09T07:45:42.061Z,12
2017-08-09T07:46:50.150Z,12
2017-08-09T07:47:58.233Z,12
2017-08-09T07:49:06.329Z,12
2017-08-09T07:50:14.405Z,16
2017-08-09T07:51:22.492Z,12
2017-08-09T07:52:30.591Z,12
2017-08-09T07:53:38.677Z,12
2017-08-09T07:54:46.762Z,12
2017-08-09T07:55:54.847Z,12
2017-08-09T07:57:02.935Z,12
2017-08-09T07:58:11.027Z,16
2017-08-09T07:59:19.110Z,12
2017-08-09T08:00:27.207Z,12
2017-08-09T08:01:35.284Z,16
2017-08-09T08:02:43.373Z,16
2017-08-09T08:03:51.458Z,16
2017-08-09T08:04:59.543Z,16
2017-08-09T08:06:07.642Z,12
2017-08-09T08:07:15.715Z,12
2017-08-09T08:08:23.805Z,12
2017-08-09T08:09:31.893Z,12
2017-08-09T08:10:39.980Z,16
2017-08-09T08:11:48.066Z,16
2017-08-09T08:12:56.152Z,16
2017-08-09T08:14:04.239Z,16
2017-08-09T08:15:12.326Z,16
2017-08-09T08:16:20.412Z,20
2017-08-09T08:17:28.498Z,16
2017-08-09T08:18:36.588Z,20
2017-08-09T08:19:44.674Z,20
2017-08-09T08:20:52.761Z,16
2017-08-09T08:22:00.847Z,16
2017-08-09T08:23:08.928Z,12
2017-08-09T08:24:17.022Z,12
2017-08-09T08:25:25.113Z,12
2017-08-09T08:26:33.200Z,16
2017-08-09T08:27:41.284Z,16
2017-08-09T08:28:49.369Z,20
2017-08-09T08:29:57.455Z,24
2017-08-09T08:31:05.545Z,28
2017-08-09T08:32:13.630Z,36
2017-08-09T08:33:21.716Z,36
2017-08-09T08:34:29.802Z,32
2017-08-09T08:35:37.887Z,24
2017-08-09T08:36:45.980Z,24
2017-08-09T08:37:54.065Z,32
2017-08-09T08:39:02.147Z,28
2017-08-09T08:40:10.248Z,28
2017-08-09T08:41:18.333Z,28
2017-08-09T08:42:26.431Z,32
2017-08-09T08:43:34.508Z,36
2017-08-09T08:44:42.594Z,36
2017-08-09T08:45:50.681Z,28
2017-08-09T08:46:58.768Z,20
2017-08-09T08:48:06.856Z,16
2017-08-09T08:49:14.943Z,28
2017-08-09T08:50:23.033Z,28
2017-08-09T08:51:31.118Z,16
2017-08-09T08:52:39.205Z,12
2017-08-09T08:53:47.297Z,16
2017-08-09T08:54:55.378Z,16
2017-08-09T08:56:03.467Z,20
2017-08-09T08:57:11.555Z,16
2017-08-09T08:58:19.642Z,20
2017-08-09T08:59:27.730Z,16
2017-08-09T09:00:35.820Z,20
2017-08-09T09:01:43.904Z,24
2017-08-09T09:02:51.989Z,20
2017-08-09T09:04:00.085Z,20
2017-08-09T09:05:08.169Z,16
2017-08-09T09:06:16.255Z,20
2017-08-09T09:07:24.339Z,24
2017-08-09T09:08:32.429Z,24
2017-08-09T09:09:40.540Z,24
2017-08-09T09:10:48.604Z,28
2017-08-09T09:11:56.691Z,32
2017-08-09T09:13:04.777Z,32
2017-08-09T09:14:12.865Z,28
2017-08-09T09:15:20.958Z,28
2017-08-09T09:16:29.037Z,28
2017-08-09T09:17:37.126Z,28
2017-08-09T09:18:45.215Z,32
2017-08-09T09:19:53.294Z,28
2017-08-09T09:21:01.387Z,16
2017-08-09T09:22:09.476Z,24
2017-08-09T09:23:17.572Z,28
2017-08-09T09:24:25.651Z,20
2017-08-09T09:25:33.739Z,28
2017-08-09T09:26:41.828Z,20
2017-08-09T09:27:49.913Z,28
2017-08-09T09:28:58.001Z,16
2017-08-09T09:30:06.100Z,24
2017-08-09T09:31:14.195Z,24
2017-08-09T09:32:22.262Z,24
2017-08-09T09:33:30.351Z,28
2017-08-09T09:34:38.438Z,16
2017-08-09T09:35:46.524Z,12
2017-08-09T09:36:54.612Z,16
2017-08-09T09:38:02.699Z,28
2017-08-09T09:39:10.789Z,32
2017-08-09T09:40:18.876Z,32
2017-08-09T09:41:26.988Z,28
2017-08-09T09:42:35.057Z,24
2017-08-09T09:43:43.139Z,12
2017-08-09T09:44:51.224Z,16
2017-08-09T09:45:59.313Z,12
2017-08-09T09:47:07.402Z,16
2017-08-09T09:48:15.486Z,28
2017-08-09T09:49:23.575Z,16
2017-08-09T09:50:31.662Z,12
2017-08-09T09:51:39.750Z,12
2017-08-09T09:52:47.836Z,12
2017-08-09T09:53:55.922Z,12
2017-08-09T09:55:04.011Z,20
2017-08-09T09:56:12.098Z,8
2017-08-09T09:57:20.188Z,8
2017-08-09T09:58:28.275Z,8
2017-08-09T09:59:36.362Z,12
2017-08-09T10:00:44.528Z,12
2017-08-09T10:01:52.536Z,28
2017-08-09T10:03:00.621Z,20
2017-08-09T10:04:08.710Z,16
2017-08-09T10:05:16.799Z,32
2017-08-09T10:06:24.890Z,32
2017-08-09T10:07:32.988Z,12
2017-08-09T10:08:41.089Z,16
2017-08-09T10:09:49.177Z,20
2017-08-09T10:10:57.261Z,8
2017-08-09T10:12:05.353Z,12
2017-08-09T10:13:13.438Z,24
2017-08-09T10:14:21.528Z,12
2017-08-09T10:15:29.614Z,12
2017-08-09T10:16:37.701Z,12
2017-08-09T10:17:45.786Z,8
2017-08-09T10:18:53.875Z,12
2017-08-09T10:20:01.962Z,32
2017-08-09T10:21:10.052Z,32
2017-08-09T10:22:18.138Z,12
2017-08-09T10:23:26.228Z,12
2017-08-09T10:24:34.314Z,24
2017-08-09T10:25:42.402Z,36
2017-08-09T10:26:50.487Z,32
2017-08-09T10:27:58.575Z,32
2017-08-09T10:29:06.661Z,36
2017-08-09T10:30:14.750Z,36
2017-08-09T10:31:22.839Z,16
2017-08-09T10:32:30.927Z,24
2017-08-09T10:33:39.014Z,28
2017-08-09T10:34:47.103Z,16
2017-08-09T10:35:55.191Z,24
2017-08-09T10:37:03.277Z,32
2017-08-09T10:38:11.363Z,36
2017-08-09T10:39:19.467Z,36
2017-08-09T10:40:27.540Z,36
2017-08-09T10:41:35.626Z,36
2017-08-09T10:42:43.718Z,24
2017-08-09T10:43:51.804Z,28
2017-08-09T10:44:59.891Z,16
2017-08-09T10:46:07.978Z,28
2017-08-09T10:47:16.077Z,36
2017-08-09T10:48:24.165Z,24
2017-08-09T10:49:32.241Z,32
2017-08-09T10:50:40.329Z,32
2017-08-09T10:51:48.418Z,36
2017-08-09T10:52:56.507Z,12
2017-08-09T10:54:04.599Z,12
2017-08-09T10:55:12.682Z,16
2017-08-09T10:56:20.772Z,16
2017-08-09T10:57:28.856Z,16
2017-08-09T10:58:37.025Z,16
2017-08-09T10:59:45.041Z,20
2017-08-09T11:00:53.123Z,20
2017-08-09T11:02:01.208Z,20
2017-08-09T11:03:09.296Z,20
2017-08-09T11:04:17.384Z,20
2017-08-09T11:05:25.467Z,20
2017-08-09T11:06:33.558Z,16
2017-08-09T11:07:41.645Z,16
2017-08-09T11:08:49.733Z,16
2017-08-09T11:09:57.821Z,16
2017-08-09T11:11:05.909Z,20
2017-08-09T11:12:14.006Z,20
2017-08-09T11:13:22.085Z,20
2017-08-09T11:14:30.174Z,20
2017-08-09T11:15:38.260Z,24
2017-08-09T11:16:46.349Z,24
2017-08-09T11:17:54.434Z,20
2017-08-09T11:19:02.523Z,20
2017-08-09T11:20:10.611Z,24
2017-08-09T11:21:18.699Z,24
2017-08-09T11:22:26.787Z,20
2017-08-09T11:23:34.871Z,20
2017-08-09T11:24:42.962Z,24
2017-08-09T11:25:51.046Z,24
2017-08-09T11:26:59.143Z,24
2017-08-09T11:28:07.220Z,20
2017-08-09T11:29:15.314Z,24
2017-08-09T11:30:23.398Z,28
2017-08-09T11:31:31.487Z,20
2017-08-09T11:32:39.575Z,28
2017-08-09T11:33:47.662Z,32
2017-08-09T11:34:55.750Z,24
2017-08-09T11:36:03.840Z,20
2017-08-09T11:37:11.923Z,20
2017-08-09T11:38:20.013Z,20
2017-08-09T11:39:28.109Z,20
2017-08-09T11:40:36.190Z,24
2017-08-09T11:41:44.275Z,24
2017-08-09T11:42:52.366Z,28
2017-08-09T11:44:00.457Z,28
2017-08-09T11:45:08.547Z,28
2017-08-09T11:46:16.629Z,28
2017-08-09T11:47:24.715Z,28
2017-08-09T11:48:32.803Z,28
2017-08-09T11:49:40.892Z,28
2017-08-09T11:50:48.979Z,24
2017-08-09T11:51:57.068Z,24
2017-08-09T11:53:05.160Z,20
2017-08-09T11:54:13.263Z,20
2017-08-09T11:55:21.343Z,20
2017-08-09T11:56:29.428Z,20
2017-08-09T11:57:37.514Z,20
2017-08-09T11:58:45.604Z,20
2017-08-09T11:59:53.697Z,20
2017-08-09T12:01:01.780Z,20
2017-08-09T12:02:09.873Z,20
2017-08-09T12:03:17.957Z,20
2017-08-09T12:04:26.044Z,16
2017-08-09T12:05:34.142Z,16
2017-08-09T12:06:42.242Z,20
2017-08-09T12:07:50.306Z,16
2017-08-09T12:08:58.409Z,16
2017-08-09T12:10:06.498Z,16
2017-08-09T12:11:14.584Z,20
2017-08-09T12:12:22.674Z,20
2017-08-09T12:13:30.773Z,16
2017-08-09T12:14:38.848Z,16
2017-08-09T12:15:46.937Z,20
2017-08-09T12:16:55.035Z,20
2017-08-09T12:18:03.119Z,20
2017-08-09T12:19:11.202Z,16
2017-08-09T12:20:19.288Z,16
2017-08-09T12:21:27.375Z,20
2017-08-09T12:22:35.463Z,16
2017-08-09T12:23:43.552Z,12
2017-08-09T12:24:51.641Z,12
2017-08-09T12:25:59.728Z,12
2017-08-09T12:27:07.814Z,12
2017-08-09T12:28:15.907Z,12
2017-08-09T12:29:23.999Z,16
2017-08-09T12:30:32.080Z,16
2017-08-09T12:31:40.167Z,16
2017-08-09T12:32:48.253Z,16
2017-08-09T12:33:56.342Z,16
2017-08-09T12:35:04.431Z,16
2017-08-09T12:36:12.518Z,20
2017-08-09T12:37:20.608Z,20
2017-08-09T12:38:28.697Z,20
2017-08-09T12:39:36.781Z,16
2017-08-09T12:40:44.868Z,20
2017-08-09T12:41:52.975Z,16
2017-08-09T12:43:01.054Z,16
2017-08-09T12:44:09.142Z,16
2017-08-09T12:45:17.231Z,16
2017-08-09T12:46:25.324Z,12
2017-08-09T12:47:33.406Z,16
2017-08-09T12:48:41.493Z,12
2017-08-09T12:49:49.580Z,16
2017-08-09T12:50:57.667Z,12
2017-08-09T12:52:05.763Z,12
2017-08-09T12:53:13.843Z,16
2017-08-09T12:54:21.944Z,12
2017-08-09T12:55:30.045Z,12
2017-08-09T12:56:38.126Z,12
2017-08-09T12:57:46.212Z,12
2017-08-09T12:58:54.299Z,12
2017-08-09T13:00:02.393Z,12
2017-08-09T13:01:10.481Z,12
2017-08-09T13:02:18.564Z,12
2017-08-09T13:03:26.652Z,12
2017-08-09T13:04:34.739Z,12
2017-08-09T13:05:42.836Z,12
2017-08-09T13:06:50.926Z,12
2017-08-09T13:07:59.014Z,8
2017-08-09T13:09:07.102Z,12
2017-08-09T13:10:15.199Z,12
2017-08-09T13:11:23.285Z,12
2017-08-09T13:12:31.374Z,16
2017-08-09T13:13:39.453Z,16
2017-08-09T13:14:47.540Z,16
2017-08-09T13:15:55.629Z,16
2017-08-09T13:17:03.717Z,12
2017-08-09T13:18:11.892Z,12
2017-08-09T13:19:19.894Z,12
2017-08-09T13:20:27.983Z,16
2017-08-09T13:21:36.188Z,16
2017-08-09T13:22:44.157Z,12
2017-08-09T13:23:52.319Z,12
2017-08-09T13:25:00.336Z,16
2017-08-09T13:26:08.422Z,12
2017-08-09T13:27:16.510Z,16
2017-08-09T13:28:24.597Z,12
2017-08-09T13:29:32.685Z,12
2017-08-09T13:30:40.772Z,12
2017-08-09T13:31:48.860Z,8
2017-08-09T13:32:56.951Z,12
2017-08-09T13:34:05.038Z,16
2017-08-09T13:35:13.125Z,12
2017-08-09T13:36:21.213Z,12
2017-08-09T13:37:29.310Z,16
2017-08-09T13:38:37.388Z,16
2017-08-09T13:39:45.477Z,12
2017-08-09T13:40:53.566Z,16
2017-08-09T13:42:01.658Z,12
2017-08-09T13:43:09.739Z,12
2017-08-09T13:44:17.827Z,8
2017-08-09T13:45:25.914Z,12
2017-08-09T13:46:34.064Z,8
2017-08-09T13:47:42.092Z,8
2017-08-09T13:48:50.180Z,12
2017-08-09T13:49:58.273Z,8
2017-08-09T13:51:06.355Z,8
2017-08-09T13:52:14.502Z,12
2017-08-09T13:53:22.530Z,12
2017-08-09T13:54:30.618Z,12
2017-08-09T13:55:38.705Z,12
2017-08-09T13:56:46.796Z,12
2017-08-09T13:57:54.886Z,12
2017-08-09T13:59:02.969Z,12
2017-08-09T14:00:11.060Z,12
2017-08-09T14:01:19.154Z,12
2017-08-09T14:02:27.233Z,8
2017-08-09T14:03:35.322Z,12
2017-08-09T14:04:43.492Z,8
2017-08-09T14:05:51.507Z,8
2017-08-09T14:06:59.593Z,8
2017-08-09T14:08:07.672Z,8
2017-08-09T14:09:15.762Z,8
2017-08-09T14:10:23.848Z,4
2017-08-09T14:11:31.936Z,8
2017-08-09T14:12:40.032Z,8
2017-08-09T14:13:48.114Z,8
2017-08-09T14:14:56.209Z,8
2017-08-09T14:16:04.290Z,8
2017-08-09T14:17:12.376Z,8
2017-08-09T14:18:20.466Z,8
2017-08-09T14:19:28.561Z,8
2017-08-09T14:20:36.648Z,12
2017-08-09T14:21:44.740Z,12
2017-08-09T14:22:52.829Z,8
2017-08-09T14:24:00.918Z,12
2017-08-09T14:25:09.004Z,12
2017-08-09T14:26:17.092Z,8
2017-08-09T14:27:25.181Z,8
2017-08-09T14:28:33.268Z,12
2017-08-09T14:29:41.355Z,8
2017-08-09T14:30:49.445Z,12
2017-08-09T14:31:57.532Z,8
2017-08-09T14:33:05.622Z,8
2017-08-09T14:34:13.706Z,8
2017-08-09T14:35:21.801Z,8
2017-08-09T14:36:29.883Z,8
2017-08-09T14:37:37.976Z,12
2017-08-09T14:38:46.071Z,8
2017-08-09T14:39:54.147Z,12
2017-08-09T14:41:02.237Z,12
2017-08-09T14:42:10.326Z,12
2017-08-09T14:43:18.416Z,8
2017-08-09T14:44:26.506Z,8
2017-08-09T14:45:34.595Z,8
2017-08-09T14:46:42.680Z,8
2017-08-09T14:47:50.769Z,8
2017-08-09T14:48:58.868Z,8
2017-08-09T14:50:06.965Z,8
2017-08-09T14:51:15.047Z,8
2017-08-09T14:52:23.133Z,8
2017-08-09T14:53:31.218Z,8
2017-08-09T14:54:39.322Z,4
2017-08-09T14:55:47.409Z,8
2017-08-09T14:56:55.501Z,8
2017-08-09T14:58:03.589Z,4
2017-08-09T14:59:11.676Z,8
2017-08-09T15:00:19.763Z,4
2017-08-09T15:01:27.861Z,8
2017-08-09T15:02:35.949Z,8
2017-08-09T15:03:44.039Z,4
2017-08-09T15:04:52.130Z,4
2017-08-09T15:06:00.218Z,4
2017-08-09T15:07:08.304Z,8
2017-08-09T15:08:16.402Z,8
2017-08-09T15:09:24.476Z,8
2017-08-09T15:10:32.567Z,8
2017-08-09T15:11:40.655Z,4
2017-08-09T15:12:48.747Z,8
2017-08-09T15:13:56.829Z,8
2017-08-09T15:15:04.918Z,4
2017-08-09T15:16:13.015Z,8
2017-08-09T15:17:21.104Z,4
2017-08-09T15:18:29.180Z,8
2017-08-09T15:19:37.308Z,4
2017-08-09T15:20:45.366Z,4
2017-08-09T15:21:53.450Z,4
2017-08-09T15:23:01.539Z,8
2017-08-09T15:24:09.625Z,4
2017-08-09T15:25:17.719Z,4
2017-08-09T15:26:25.799Z,4
2017-08-09T15:27:33.886Z,4
2017-08-09T15:28:41.976Z,4
2017-08-09T15:29:50.063Z,4
2017-08-09T15:30:58.150Z,4
2017-08-09T15:32:06.239Z,4
2017-08-09T15:33:14.327Z,4
2017-08-09T15:34:22.418Z,4
2017-08-09T15:35:30.503Z,4
2017-08-09T15:36:38.591Z,4
2017-08-09T15:37:46.677Z,4
2017-08-09T15:38:54.765Z,0
2017-08-09T15:40:02.856Z,4
2017-08-09T15:41:10.941Z,4
2017-08-09T15:42:19.032Z,4
2017-08-09T15:43:27.118Z,0
2017-08-09T15:44:35.211Z,4
2017-08-09T15:45:43.299Z,4
2017-08-09T15:46:51.380Z,4
2017-08-09T15:47:59.466Z,4
2017-08-09T15:49:07.558Z,4
2017-08-09T15:50:15.652Z,0
2017-08-09T15:51:23.730Z,0
2017-08-09T15:52:31.822Z,0
2017-08-09T15:53:39.905Z,4
2017-08-09T15:54:47.996Z,4
2017-08-09T15:55:56.082Z,4
2017-08-09T15:57:04.170Z,4
2017-08-09T15:58:12.315Z,4
2017-08-09T15:59:20.347Z,4
2017-08-09T16:00:28.434Z,4
2017-08-09T16:01:36.522Z,4
2017-08-09T16:02:44.611Z,0
2017-08-09T16:03:52.703Z,0
2017-08-09T16:05:00.779Z,0
2017-08-09T16:06:08.871Z,4
2017-08-09T16:07:16.985Z,4
2017-08-09T16:08:25.048Z,0
2017-08-09T16:09:33.138Z,0
2017-08-09T16:10:41.258Z,0
2017-08-09T16:11:49.328Z,0
2017-08-09T16:12:57.431Z,0
2017-08-09T16:14:05.639Z,0
2017-08-09T16:15:13.607Z,0
2017-08-09T16:16:21.703Z,0
2017-08-09T16:17:29.794Z,0
2017-08-09T16:18:37.894Z,4
2017-08-09T16:19:45.981Z,4
2017-08-09T16:20:54.069Z,4
2017-08-09T16:22:02.159Z,4
2017-08-09T16:23:10.245Z,4
2017-08-09T16:24:18.351Z,4
2017-08-09T16:25:26.419Z,4
2017-08-09T16:26:34.507Z,4
2017-08-09T16:27:42.596Z,4
2017-08-09T16:28:50.683Z,0
2017-08-09T16:29:58.779Z,4
2017-08-09T16:31:06.864Z,4